Terminal Aerodrome Forecast
Issued by NWS

Current Version | Previous Version | Graphics & Text | Print | Product List | Glossary On
Versions: 1 2 3 4 5 6 7 8 9 10 11 12 13 14 15 16 17 18 19 20 21
000
FTUS41 KILN 181100
TAFLCK
TAF
KLCK 181133Z 1812/1912 VRB03KT P6SM BKN050 OVC060
     FM181300 07004KT P6SM OVC025
     FM181700 07005KT P6SM VCSH BKN040
     FM190100 VRB03KT P6SM BKN100=

USA.gov is the U.S. government's official web portal to all federal, state and local government web resources and services.